Time;durP1;ratioP1;P1;durP2;ratioP2;P2;SDS_P1;SDS_P2;PMS_P1;PMS_P2;Temp;Humidity;BMP_temperature;BMP_pressure;BME280_temperature;BME280_humidity;BME280_pressure;Samples;Min_cycle;Max_cycle;Signal;HPM_P1;HPM_P2
2023/01/29 00:03:40;;;;;;;19.80;8.07;;;;;;;19.17;52.18;97477.69;10363270;28;20303;-29
2023/01/29 00:08:40;;;;;;;20.88;8.18;;;;;;;19.25;52.18;97485.44;10371624;28;20038;-28
2023/01/29 00:13:42;;;;;;;19.80;8.00;;;;;;;19.35;51.28;97482.13;10372669;28;20128;-28
2023/01/29 00:18:42;;;;;;;13.05;6.78;;;;;;;19.36;51.14;97478.75;10367468;28;20143;-30
2023/01/29 00:23:43;;;;;;;14.23;6.70;;;;;;;19.39;50.99;97491.47;10361650;28;20080;-34
2023/01/29 00:28:44;;;;;;;23.45;7.03;;;;;;;19.44;50.78;97482.22;10370495;28;20041;-29
2023/01/29 00:33:46;;;;;;;20.23;7.33;;;;;;;19.44;51.55;97477.13;10370903;28;20049;-29
2023/01/29 00:38:53;;;;;;;15.73;6.80;;;;;;;19.46;51.34;97485.59;10369155;28;20042;-29
2023/01/29 00:49:13;;;;;;;17.85;6.78;;;;;;;19.44;51.98;97482.22;10379508;28;20138;-29
2023/01/29 00:54:13;;;;;;;14.37;6.63;;;;;;;19.48;50.95;97478.84;10360080;28;20043;-28
2023/01/29 00:59:13;;;;;;;11.45;5.72;;;;;;;19.46;50.93;97480.53;10370669;28;20073;-29
2023/01/29 01:04:14;;;;;;;12.47;6.83;;;;;;;19.50;51.15;97472.09;10365555;28;20036;-30
2023/01/29 01:14:35;;;;;;;12.85;6.03;;;;;;;19.58;50.59;97470.47;10363554;28;20514;-29
2023/01/29 01:19:35;;;;;;;10.60;5.87;;;;;;;19.57;50.79;97473.84;10367844;28;20034;-30
2023/01/29 01:24:36;;;;;;;12.53;5.30;;;;;;;19.58;50.44;97475.56;10364224;28;20799;-29
2023/01/29 01:29:38;;;;;;;13.23;5.45;;;;;;;19.56;50.62;97473.00;10362072;28;20288;-29
2023/01/29 01:34:38;;;;;;;13.07;5.53;;;;;;;19.57;50.55;97471.28;10366444;28;20037;-29
2023/01/29 01:39:38;;;;;;;12.00;5.00;;;;;;;19.53;50.56;97478.06;10383231;28;20037;-29
2023/01/29 01:45:06;;;;;;;9.10;4.87;;;;;;;19.53;50.77;97478.06;10368135;28;20382;-29
2023/01/29 01:50:14;;;;;;;15.10;5.40;;;;;;;19.59;50.63;97478.09;10369333;28;20288;-29
2023/01/29 01:55:18;;;;;;;10.80;5.93;;;;;;;19.56;50.60;97472.13;10360930;28;20045;-29
2023/01/29 02:00:21;;;;;;;7.82;4.53;;;;;;;19.63;50.35;97468.81;10368331;28;20029;-30
2023/01/29 02:10:45;;;;;;;9.93;4.65;;;;;;;19.62;50.46;97467.09;10360764;28;20041;-30
2023/01/29 02:15:47;;;;;;;12.98;5.63;;;;;;;19.63;50.48;97463.72;10368536;28;20053;-29
2023/01/29 02:21:14;;;;;;;8.02;4.85;;;;;;;19.63;50.50;97478.97;10366759;28;20117;-28
2023/01/29 02:26:39;;;;;;;5.63;3.72;;;;;;;19.61;50.41;97485.72;10361463;28;20037;-29
2023/01/29 02:31:49;;;;;;;7.90;4.30;;;;;;;19.59;50.25;97467.09;10360699;28;20293;-27
2023/01/29 02:37:00;;;;;;;9.70;4.70;;;;;;;19.64;50.19;97478.13;10354853;28;20037;-29
2023/01/29 02:42:11;;;;;;;7.28;3.88;;;;;;;19.63;50.24;97478.97;10365739;28;20156;-28
2023/01/29 02:47:22;;;;;;;7.47;4.22;;;;;;;19.64;50.37;97478.13;10366003;28;20075;-28
2023/01/29 02:52:33;;;;;;;6.20;4.05;;;;;;;19.64;50.27;97486.63;10378385;28;20048;-30
2023/01/29 02:57:38;;;;;;;8.73;3.63;;;;;;;19.67;50.15;97475.63;10349428;28;20031;-29
2023/01/29 03:02:55;;;;;;;8.73;4.28;;;;;;;19.70;50.30;97483.25;10366623;28;20495;-28
2023/01/29 03:08:02;;;;;;;5.88;3.40;;;;;;;19.68;50.12;97484.94;10364467;28;20068;-28
2023/01/29 03:13:25;;;;;;;7.30;4.60;;;;;;;19.67;50.27;97495.94;10358680;28;20518;-29
2023/01/29 03:18:29;;;;;;;6.45;4.05;;;;;;;19.64;50.26;97501.00;10366668;28;20065;-28
2023/01/29 03:34:23;;;;;;;6.47;3.42;;;;;;;19.58;50.70;97500.97;10362964;28;20036;-28
2023/01/29 03:39:27;;;;;;;5.95;3.20;;;;;;;19.63;50.52;97494.22;10354858;28;20045;-29
2023/01/29 03:44:40;;;;;;;4.88;3.05;;;;;;;19.67;50.31;97503.56;10353161;28;20486;-29
2023/01/29 03:50:04;;;;;;;6.68;3.70;;;;;;;19.69;50.03;97499.34;10355010;28;20045;-27
2023/01/29 03:55:54;;;;;;;9.52;3.90;;;;;;;19.76;49.88;97496.84;10366912;28;20045;-29
2023/01/29 04:01:01;;;;;;;7.82;3.35;;;;;;;19.76;49.78;97489.22;10330326;28;20184;-28
2023/01/29 04:06:04;;;;;;;6.53;3.70;;;;;;;19.78;49.88;97491.78;10387128;28;20026;-28
2023/01/29 04:11:12;;;;;;;7.00;4.22;;;;;;;19.78;49.85;97502.81;10362631;28;20037;-29
2023/01/29 04:16:21;;;;;;;5.25;3.28;;;;;;;19.79;49.76;97506.19;10372920;28;20026;-29
2023/01/29 04:22:05;;;;;;;5.70;3.38;;;;;;;19.77;49.85;97501.09;10359125;28;20030;-28
2023/01/29 04:27:47;;;;;;;7.55;3.35;;;;;;;19.77;49.68;97495.19;10368602;28;20045;-28
2023/01/29 04:33:09;;;;;;;5.28;3.08;;;;;;;19.78;49.65;97502.81;10363178;28;20050;-28
2023/01/29 04:38:32;;;;;;;5.43;3.25;;;;;;;19.77;49.69;97496.00;10365034;28;20578;-28
2023/01/29 04:44:00;;;;;;;4.60;2.88;;;;;;;19.81;49.62;97495.22;10364315;28;20026;-29
2023/01/29 04:49:22;;;;;;;6.50;3.38;;;;;;;19.82;49.70;97490.94;10366825;28;20124;-29
2023/01/29 04:54:32;;;;;;;7.57;3.08;;;;;;;19.82;49.71;97486.75;10361815;28;20044;-28
2023/01/29 04:59:39;;;;;;;5.10;3.00;;;;;;;19.87;49.26;97489.31;10367473;28;20133;-28
2023/01/29 05:04:43;;;;;;;3.83;3.03;;;;;;;19.85;49.74;97481.66;10364353;28;20034;-28
2023/01/29 05:09:45;;;;;;;10.50;3.15;;;;;;;19.84;49.57;97481.69;10369064;28;20038;-29
2023/01/29 05:14:46;;;;;;;6.00;3.15;;;;;;;19.83;49.31;97483.34;10364879;28;20041;-28
2023/01/29 05:19:47;;;;;;;5.03;3.42;;;;;;;19.85;49.59;97485.91;10367790;28;20034;-29
2023/01/29 05:24:49;;;;;;;5.50;2.85;;;;;;;19.83;49.45;97490.16;10366064;28;20085;-28
2023/01/29 05:29:49;;;;;;;3.83;2.50;;;;;;;19.82;49.48;97489.28;10369937;28;20036;-28
2023/01/29 05:34:49;;;;;;;4.07;2.80;;;;;;;19.84;49.64;97500.31;10368624;28;20044;-27
2023/01/29 05:39:50;;;;;;;5.47;3.20;;;;;;;19.84;49.46;97504.53;10367793;28;20490;-29
2023/01/29 05:44:50;;;;;;;5.60;2.70;;;;;;;19.85;50.58;97506.25;10366025;28;20057;-28
2023/01/29 05:49:50;;;;;;;7.30;2.73;;;;;;;19.88;50.92;97498.63;10367485;28;20457;-28
2023/01/29 05:54:51;;;;;;;4.07;2.93;;;;;;;19.86;51.10;97500.31;10367155;28;20421;-29
2023/01/29 05:59:51;;;;;;;4.47;2.43;;;;;;;19.86;51.42;97507.94;10368711;28;20041;-28
2023/01/29 06:04:51;;;;;;;6.70;2.73;;;;;;;19.85;51.64;97518.94;10362275;28;20042;-29
2023/01/29 06:09:52;;;;;;;4.43;2.83;;;;;;;19.85;51.71;97521.50;10373073;28;20041;-29
2023/01/29 06:14:52;;;;;;;7.40;3.17;;;;;;;19.76;53.13;97521.44;10370716;28;20040;-28
2023/01/29 06:19:52;;;;;;;6.37;2.80;;;;;;;19.79;52.37;97506.19;10359985;28;20076;-28
2023/01/29 06:24:53;;;;;;;6.20;2.80;;;;;;;19.81;51.92;97484.19;10363988;28;20028;-27
2023/01/29 06:29:53;;;;;;;7.03;3.00;;;;;;;19.78;51.45;97476.53;10368038;28;20061;-28
2023/01/29 06:34:53;;;;;;;5.73;3.13;;;;;;;19.79;51.42;97468.06;10364694;28;20461;-29
2023/01/29 06:39:54;;;;;;;5.17;2.83;;;;;;;19.73;50.73;97466.34;10358537;28;20396;-28
2023/01/29 06:44:55;;;;;;;6.00;2.93;;;;;;;19.85;50.00;97488.47;10366075;28;20506;-28
2023/01/29 06:49:55;;;;;;;8.38;2.47;;;;;;;19.88;49.63;97506.25;10364915;28;20037;-29
2023/01/29 06:54:55;;;;;;;7.17;2.77;;;;;;;19.84;49.86;97514.72;10364954;28;20063;-28
2023/01/29 06:59:56;;;;;;;9.57;2.63;;;;;;;19.84;49.72;97517.25;10366483;28;20053;-28
2023/01/29 07:04:56;;;;;;;6.93;3.00;;;;;;;19.80;49.84;97523.13;10369530;28;20026;-27
2023/01/29 07:09:56;;;;;;;13.57;3.30;;;;;;;19.80;50.31;97530.75;10364970;28;20038;-28
2023/01/29 07:14:57;;;;;;;10.77;4.80;;;;;;;19.83;50.63;97544.34;10367227;28;20038;-28
2023/01/29 07:19:57;;;;;;;9.43;3.33;;;;;;;19.83;50.56;97549.41;10373587;28;20577;-29
2023/01/29 07:24:57;;;;;;;7.37;3.57;;;;;;;19.84;51.19;97565.53;10360536;28;20550;-29
2023/01/29 07:29:58;;;;;;;5.53;3.22;;;;;;;19.87;51.24;97570.63;10359546;28;20519;-28
2023/01/29 07:34:58;;;;;;;8.17;2.90;;;;;;;19.86;51.23;97559.59;10366289;28;20052;-28
2023/01/29 07:39:58;;;;;;;12.03;3.43;;;;;;;19.94;51.74;97567.31;10367155;28;20038;-30
2023/01/29 07:44:59;;;;;;;16.70;3.50;;;;;;;20.04;50.73;97566.53;10373329;28;20030;-28
2023/01/29 07:49:59;;;;;;;9.67;3.43;;;;;;;19.85;50.33;97567.25;10371188;28;20871;-29
2023/01/29 07:55:00;;;;;;;12.13;3.10;;;;;;;19.97;49.88;97558.00;10370817;28;20105;-27
2023/01/29 08:00:00;;;;;;;17.50;3.88;;;;;;;19.80;51.65;97558.72;10357077;28;20052;-29
2023/01/29 08:05:03;;;;;;;13.43;3.63;;;;;;;19.94;51.13;97565.59;10366718;28;20029;-29
2023/01/29 08:10:04;;;;;;;13.43;3.17;;;;;;;19.97;52.32;97577.50;10366533;28;20086;-29
2023/01/29 08:15:04;;;;;;;18.38;4.13;;;;;;;19.99;52.08;97591.06;10366718;28;20617;-29
2023/01/29 08:20:06;;;;;;;16.52;4.20;;;;;;;19.97;51.54;97602.91;10367352;28;20038;-27
2023/01/29 08:25:07;;;;;;;16.15;4.50;;;;;;;20.01;51.91;97602.94;10361226;28;20026;-28
2023/01/29 08:30:08;;;;;;;14.77;4.80;;;;;;;20.00;52.04;97608.03;10359035;28;20026;-28
2023/01/29 08:35:09;;;;;;;15.30;4.50;;;;;;;20.08;51.62;97626.78;10364772;28;20025;-29
2023/01/29 08:40:12;;;;;;;14.77;4.60;;;;;;;20.07;53.30;97632.66;10369168;28;20041;-29
2023/01/29 08:45:12;;;;;;;13.10;5.18;;;;;;;20.04;52.49;97627.53;10363919;28;20510;-28
2023/01/29 08:50:13;;;;;;;16.63;4.85;;;;;;;20.03;52.73;97630.94;10366815;28;20140;-28
2023/01/29 08:55:14;;;;;;;14.93;4.30;;;;;;;20.04;53.01;97625.91;10357130;28;20026;-28
2023/01/29 09:00:14;;;;;;;18.48;4.18;;;;;;;20.05;53.02;97624.19;10367465;28;20426;-28
2023/01/29 09:05:15;;;;;;;32.63;6.20;;;;;;;20.06;53.18;97631.84;10357194;28;20334;-30
2023/01/29 09:10:15;;;;;;;15.97;3.87;;;;;;;19.99;52.02;97627.50;10363114;28;20030;-28
2023/01/29 09:15:16;;;;;;;13.82;4.63;;;;;;;20.03;51.94;97643.63;10366860;28;20300;-29
2023/01/29 09:20:18;;;;;;;15.65;4.75;;;;;;;20.02;51.20;97649.56;10352793;28;20038;-29
2023/01/29 09:25:19;;;;;;;10.85;4.78;;;;;;;20.02;50.81;97652.09;10373199;28;20040;-29
2023/01/29 09:30:22;;;;;;;11.75;4.47;;;;;;;20.14;51.50;97649.69;10377668;28;20039;-29
2023/01/29 09:35:22;;;;;;;28.88;5.15;;;;;;;20.12;52.07;97659.88;10359715;28;20037;-28
2023/01/29 09:40:29;;;;;;;31.17;5.65;;;;;;;19.92;53.46;97650.31;10363441;28;20037;-29
2023/01/29 09:45:30;;;;;;;30.27;5.25;;;;;;;19.73;54.45;97648.44;10365878;28;20060;-28
2023/01/29 09:50:37;;;;;;;30.05;5.70;;;;;;;19.69;54.07;97637.38;10364595;28;20034;-28
2023/01/29 09:55:44;;;;;;;14.82;4.40;;;;;;;19.63;54.38;97641.56;10353381;28;20037;-28
2023/01/29 10:01:02;;;;;;;16.08;4.72;;;;;;;19.53;53.63;97642.31;10361457;28;20041;-27
2023/01/29 10:06:14;;;;;;;16.95;5.05;;;;;;;19.51;53.43;97636.38;10357077;28;20517;-29
2023/01/29 10:11:23;;;;;;;23.20;4.47;;;;;;;19.60;53.10;97644.06;10367209;28;20528;-29
2023/01/29 10:16:39;;;;;;;21.45;4.40;;;;;;;19.52;52.57;97632.97;10358492;28;20029;-28
2023/01/29 10:22:07;;;;;;;13.82;3.80;;;;;;;19.50;52.73;97634.66;10368615;28;20048;-30
2023/01/29 10:27:14;;;;;;;14.57;3.70;;;;;;;19.40;51.50;97618.47;10354344;28;20041;-28
2023/01/29 10:32:16;;;;;;;;;;;;;;;19.26;50.03;97601.38;10356574;28;20045;-28
2023/01/29 10:37:22;;;;;;;9.27;3.97;;;;;;;19.16;49.86;97581.78;10358137;28;19917;-28
2023/01/29 10:42:40;;;;;;;14.80;4.13;;;;;;;19.09;49.77;97563.06;10362923;28;20034;-28
2023/01/29 10:48:08;;;;;;;12.07;3.50;;;;;;;18.97;47.46;97549.41;10358657;28;20046;-30
2023/01/29 10:53:17;;;;;;;14.63;4.60;;;;;;;19.06;46.29;97536.81;10359537;28;20520;-29
2023/01/29 10:58:26;;;;;;;11.95;4.28;;;;;;;19.04;46.70;97536.81;10355733;28;20072;-28
2023/01/29 11:03:29;;;;;;;16.80;4.30;;;;;;;17.43;37.28;97531.13;10358995;28;20045;-28
2023/01/29 11:08:45;;;;;;;8.35;4.03;;;;;;;17.39;36.01;97544.56;10357695;28;20482;-28
2023/01/29 11:13:59;;;;;;;15.63;3.60;;;;;;;18.39;37.04;97539.38;10363759;28;20053;-28
2023/01/29 11:19:02;;;;;;;15.82;3.17;;;;;;;18.65;39.66;97527.88;10350408;28;20521;-28
2023/01/29 11:24:16;;;;;;;22.13;4.72;;;;;;;18.89;44.44;97538.31;10356259;28;20395;-29
2023/01/29 11:29:54;;;;;;;9.35;3.40;;;;;;;18.78;44.74;97552.56;10359476;28;20036;-29
2023/01/29 11:35:14;;;;;;;16.00;5.57;;;;;;;18.67;43.48;97549.88;10354730;28;20180;-28
2023/01/29 11:40:17;;;;;;;15.05;5.55;;;;;;;18.58;42.07;97541.34;10360113;28;20501;-28
2023/01/29 11:45:26;;;;;;;10.93;4.18;;;;;;;18.80;44.62;97548.34;10356042;28;20501;-29
2023/01/29 11:50:30;;;;;;;13.63;4.40;;;;;;;18.86;45.75;97531.53;10361871;28;20559;-28
2023/01/29 11:55:34;;;;;;;11.18;3.63;;;;;;;18.82;45.76;97514.56;10362039;28;20116;-28
2023/01/29 12:00:38;;;;;;;19.40;6.63;;;;;;;18.77;45.00;97525.50;10351762;28;20041;-28
2023/01/29 12:05:39;;;;;;;9.27;4.28;;;;;;;18.73;44.98;97521.19;10365751;28;20028;-28
2023/01/29 12:10:41;;;;;;;10.43;4.20;;;;;;;18.71;44.86;97520.34;10365747;28;20088;-28
2023/01/29 12:15:42;;;;;;;7.43;4.30;;;;;;;18.71;44.92;97523.75;10361178;28;20030;-27
2023/01/29 12:20:53;;;;;;;12.90;4.28;;;;;;;18.94;44.18;97518.91;10369945;28;20037;-27
2023/01/29 12:26:18;;;;;;;14.57;4.60;;;;;;;18.76;44.56;97511.94;10361985;28;20045;-28
2023/01/29 12:31:32;;;;;;;7.47;4.57;;;;;;;18.68;44.12;97505.09;10357500;28;20495;-28
2023/01/29 12:36:54;;;;;;;11.07;4.70;;;;;;;18.66;41.72;97496.63;10376846;28;20861;-28
2023/01/29 12:42:02;;;;;;;10.48;3.65;;;;;;;18.59;43.07;97487.25;10361549;28;20112;-29
2023/01/29 12:47:06;;;;;;;12.02;4.05;;;;;;;18.60;43.19;97481.31;10350413;28;20518;-28
2023/01/29 12:52:36;;;;;;;11.68;4.40;;;;;;;18.62;43.77;97487.25;10343155;28;20033;-28
2023/01/29 12:57:49;;;;;;;12.85;4.57;;;;;;;18.53;43.59;97479.53;10351032;28;20465;-28
2023/01/29 13:03:00;;;;;;;13.30;5.10;;;;;;;18.49;43.58;97477.81;10358613;28;20398;-28
2023/01/29 13:08:12;;;;;;;8.13;4.10;;;;;;;18.50;44.47;97464.31;10354555;28;20128;-28
2023/01/29 13:13:25;;;;;;;12.40;4.63;;;;;;;18.52;44.59;97455.91;10362350;28;20509;-28
2023/01/29 13:18:46;;;;;;;11.73;3.83;;;;;;;18.96;45.15;97446.19;10350150;28;20034;-29
2023/01/29 13:23:48;;;;;;;18.95;3.92;;;;;;;19.23;44.95;97437.19;10350057;28;21264;-27
2023/01/29 13:28:51;;;;;;;11.98;3.53;;;;;;;19.36;44.65;97439.00;10348285;28;20037;-28
2023/01/29 13:33:55;;;;;;;16.05;3.97;;;;;;;19.23;42.19;97427.03;10360452;28;20038;-28
2023/01/29 13:39:05;;;;;;;11.65;4.00;;;;;;;19.15;41.21;97422.66;10365582;28;20037;-28
2023/01/29 13:44:19;;;;;;;9.35;3.72;;;;;;;19.27;41.70;97412.66;10376099;28;20233;-28
2023/01/29 13:49:42;;;;;;;9.80;3.47;;;;;;;19.23;44.09;97411.78;10367669;28;20061;-28
2023/01/29 13:55:12;;;;;;;7.65;3.08;;;;;;;19.47;47.13;97395.88;10353405;28;20415;-28
2023/01/29 14:00:23;;;;;;;14.13;3.35;;;;;;;19.57;48.15;97387.47;10353796;28;20084;-29
2023/01/29 14:05:29;;;;;;;23.65;4.70;;;;;;;19.47;47.19;97383.19;10368638;28;20056;-28
2023/01/29 14:10:31;;;;;;;17.52;4.38;;;;;;;19.25;45.76;97373.72;10359379;28;20030;-30
2023/01/29 14:15:36;;;;;;;14.32;3.67;;;;;;;19.17;48.31;97401.53;10373463;28;20065;-27
2023/01/29 14:20:40;;;;;;;12.88;4.18;;;;;;;19.11;46.92;97400.66;10366296;28;20034;-27
2023/01/29 14:25:41;;;;;;;14.80;3.78;;;;;;;18.91;48.68;97386.97;10359158;28;20032;-28
2023/01/29 14:30:46;;;;;;;9.65;4.05;;;;;;;19.00;49.30;97412.41;10357726;28;20121;-29
2023/01/29 14:35:51;;;;;;;19.98;4.95;;;;;;;18.87;47.54;97415.66;10366479;28;20038;-27
2023/01/29 14:41:04;;;;;;;15.77;5.68;;;;;;;18.03;41.33;97422.28;10362299;28;20117;-27
2023/01/29 14:46:32;;;;;;;24.67;6.97;;;;;;;16.43;35.65;97430.59;10353702;28;20045;-28
2023/01/29 14:51:37;;;;;;;12.38;4.53;;;;;;;17.70;41.14;97429.41;10366780;28;20048;-28
2023/01/29 14:57:07;;;;;;;11.77;4.25;;;;;;;18.25;43.97;97442.00;10349101;28;20038;-28
2023/01/29 15:02:39;;;;;;;14.00;3.30;;;;;;;18.47;45.11;97433.81;10364636;28;20053;-27
2023/01/29 15:07:48;;;;;;;13.38;4.25;;;;;;;18.41;43.75;97438.84;10354295;28;20042;-29
2023/01/29 15:13:26;;;;;;;9.60;3.80;;;;;;;18.66;44.00;97446.72;10357679;28;20048;-28
2023/01/29 15:18:41;;;;;;;6.22;3.40;;;;;;;18.67;43.75;97445.91;10357719;28;20092;-27
2023/01/29 15:23:43;;;;;;;7.28;3.72;;;;;;;18.53;43.55;97464.34;10356792;28;20030;-28
2023/01/29 15:28:44;;;;;;;4.75;3.00;;;;;;;18.70;44.69;97468.78;10358180;28;20074;-28
2023/01/29 15:33:47;;;;;;;9.88;3.22;;;;;;;18.55;42.58;97468.59;10359252;28;20042;-28
2023/01/29 15:38:47;;;;;;;5.95;2.67;;;;;;;18.70;44.22;97472.97;10367151;28;20067;-27
2023/01/29 15:43:55;;;;;;;6.33;2.70;;;;;;;18.66;44.94;97472.09;10363072;28;20064;-28
2023/01/29 15:48:59;;;;;;;3.35;3.03;;;;;;;18.60;42.88;97476.25;10367676;28;20369;-26
2023/01/29 15:54:03;;;;;;;4.47;3.00;;;;;;;18.52;42.52;97467.72;10365402;28;20040;-28
2023/01/29 15:59:06;;;;;;;6.57;3.05;;;;;;;18.55;45.03;97468.59;10369816;28;20042;-27
2023/01/29 16:04:13;;;;;;;5.93;2.75;;;;;;;18.56;45.39;97465.22;10366866;28;20113;-28
2023/01/29 16:09:18;;;;;;;5.32;2.75;;;;;;;18.59;45.33;97474.56;10376438;28;20049;-28
2023/01/29 16:14:24;;;;;;;3.63;2.83;;;;;;;18.54;45.48;97474.50;10369143;28;20038;-28
2023/01/29 16:19:28;;;;;;;4.67;3.00;;;;;;;18.48;45.42;97476.97;10368143;28;20025;-29
2023/01/29 16:24:31;;;;;;;4.22;2.78;;;;;;;18.49;45.68;97482.91;10364443;28;20026;-27
2023/01/29 16:29:32;;;;;;;6.47;3.00;;;;;;;18.47;45.84;97485.41;10368767;28;20084;-27
2023/01/29 16:34:36;;;;;;;4.65;2.55;;;;;;;18.49;45.75;97487.97;10362329;28;20445;-27
2023/01/29 16:39:47;;;;;;;3.80;2.90;;;;;;;18.45;45.13;97481.13;10367802;28;20069;-29
2023/01/29 16:45:05;;;;;;;2.92;2.33;;;;;;;18.53;46.00;97490.56;10370990;28;20452;-28
2023/01/29 16:50:35;;;;;;;4.55;2.83;;;;;;;18.49;45.23;97480.38;10374776;28;20038;-28
2023/01/29 16:55:39;;;;;;;3.00;2.50;;;;;;;18.48;45.39;97471.03;10355626;28;20494;-28
2023/01/29 17:00:49;;;;;;;3.40;2.50;;;;;;;18.65;45.39;97464.47;10375365;28;20045;-29
2023/01/29 17:05:51;;;;;;;6.90;3.05;;;;;;;18.65;47.09;97465.31;10368278;28;20034;-28
2023/01/29 17:10:52;;;;;;;3.85;2.30;;;;;;;18.61;47.04;97477.94;10368908;28;20068;-27
2023/01/29 17:15:52;;;;;;;5.88;3.13;;;;;;;18.56;47.00;97479.56;10370569;28;20064;-28
2023/01/29 17:20:53;;;;;;;6.28;3.20;;;;;;;18.54;47.45;97486.31;10370229;28;20041;-28
2023/01/29 17:25:53;;;;;;;6.13;3.42;;;;;;;18.46;46.86;97475.22;10365099;28;20494;-27
2023/01/29 17:30:53;;;;;;;3.72;2.90;;;;;;;18.45;46.41;97474.41;10369534;28;20042;-27
2023/01/29 17:35:54;;;;;;;3.33;2.90;;;;;;;18.50;47.19;97469.38;10370530;28;20452;-29
2023/01/29 17:40:58;;;;;;;2.80;2.40;;;;;;;18.45;47.03;97471.00;10372357;28;20133;-27
2023/01/29 17:45:59;;;;;;;4.50;2.90;;;;;;;18.49;46.97;97478.66;10370155;28;20692;-28
2023/01/29 17:51:03;;;;;;;4.07;3.13;;;;;;;18.41;46.04;97474.34;10363625;28;20037;-28
2023/01/29 17:56:04;;;;;;;4.28;2.70;;;;;;;18.51;47.32;97476.16;10367689;28;20492;-29
2023/01/29 18:01:04;;;;;;;3.13;2.40;;;;;;;18.55;47.23;97480.41;10368672;28;20038;-27
2023/01/29 18:06:08;;;;;;;6.90;5.70;;;;;;;18.49;45.55;97490.50;10362811;28;20461;-27
2023/01/29 18:11:11;;;;;;;7.55;4.13;;;;;;;18.37;45.45;97488.66;10365689;28;20411;-28
2023/01/29 18:16:11;;;;;;;7.40;3.50;;;;;;;18.46;45.71;97487.91;10368387;28;20033;-28
2023/01/29 18:21:14;;;;;;;5.93;3.50;;;;;;;18.56;46.46;97484.66;10365490;28;20038;-27
2023/01/29 18:26:15;;;;;;;8.80;3.97;;;;;;;18.36;42.78;97483.56;10364710;28;20358;-28
2023/01/29 18:31:15;;;;;;;7.65;4.85;;;;;;;18.35;42.65;97474.25;10371143;28;20042;-27
2023/01/29 18:36:16;;;;;;;6.33;4.50;;;;;;;18.45;43.65;97502.28;10361508;28;20418;-29
2023/01/29 18:41:16;;;;;;;10.17;5.37;;;;;;;18.45;41.59;97501.44;10352810;28;20578;-27
2023/01/29 18:46:17;;;;;;;6.32;4.68;;;;;;;18.41;40.53;97509.84;10365991;28;20061;-28
2023/01/29 18:51:18;;;;;;;7.13;5.28;;;;;;;18.37;42.99;97508.94;10369025;28;20030;-28
2023/01/29 18:56:18;;;;;;;10.10;4.30;;;;;;;18.51;45.50;97509.13;10368242;28;20034;-29
2023/01/29 19:01:19;;;;;;;10.23;4.80;;;;;;;18.51;45.69;97506.59;10362655;28;20030;-27
2023/01/29 19:06:19;;;;;;;9.10;4.30;;;;;;;18.42;45.36;97509.00;10360885;28;20409;-29
2023/01/29 19:11:20;;;;;;;4.60;4.20;;;;;;;18.37;45.67;97503.88;10359619;28;20041;-29
2023/01/29 19:16:20;;;;;;;5.03;4.23;;;;;;;18.32;45.99;97497.88;10361626;28;20312;-28
2023/01/29 19:21:21;;;;;;;4.38;3.97;;;;;;;18.30;45.41;97493.63;10362246;28;20041;-28
2023/01/29 19:26:21;;;;;;;4.32;3.80;;;;;;;18.28;45.92;97487.66;10365960;28;20149;-28
2023/01/29 19:31:22;;;;;;;4.77;4.00;;;;;;;18.21;45.73;97470.66;10369150;28;20052;-27
2023/01/29 19:36:22;;;;;;;4.80;4.30;;;;;;;18.26;45.52;97484.25;10370414;28;20168;-29
2023/01/29 19:41:23;;;;;;;4.43;4.00;;;;;;;18.25;45.37;97487.63;10368491;28;20704;-28
2023/01/29 19:46:23;;;;;;;4.28;3.63;;;;;;;18.23;45.01;97489.25;10365207;28;20522;-27
2023/01/29 19:51:24;;;;;;;3.77;3.20;;;;;;;18.31;46.23;97502.91;10361003;28;20117;-29
2023/01/29 19:56:24;;;;;;;10.02;3.97;;;;;;;18.40;48.33;97506.44;10363732;28;20029;-28
2023/01/29 20:01:28;;;;;;;4.27;3.23;;;;;;;18.37;47.91;97497.94;10368461;28;20049;-28
2023/01/29 20:06:32;;;;;;;4.03;3.30;;;;;;;18.34;44.61;97508.06;10367307;28;20699;-27
2023/01/29 20:11:32;;;;;;;4.18;3.65;;;;;;;18.26;45.07;97504.53;10366812;28;20532;-28
2023/01/29 20:16:33;;;;;;;5.03;3.65;;;;;;;18.23;45.54;97510.41;10368584;28;20056;-28
2023/01/29 20:21:33;;;;;;;5.93;3.40;;;;;;;18.22;45.80;97516.31;10366693;28;20030;-28
2023/01/29 20:26:34;;;;;;;5.13;3.20;;;;;;;18.22;45.45;97512.91;10361900;28;20369;-29
2023/01/29 20:31:34;;;;;;;3.92;2.95;;;;;;;18.21;44.87;97506.13;10373920;28;20052;-27
2023/01/29 20:36:34;;;;;;;3.73;3.33;;;;;;;18.21;45.17;97511.22;10367283;28;20506;-28
2023/01/29 20:41:40;;;;;;;3.90;3.40;;;;;;;18.22;45.21;97502.78;10365581;28;20037;-27
2023/01/29 20:46:41;;;;;;;3.60;3.13;;;;;;;18.21;45.53;97511.22;10362999;28;20049;-28
2023/01/29 20:51:43;;;;;;;3.97;3.05;;;;;;;18.30;45.67;97504.63;10367729;28;20045;-29
2023/01/29 20:56:43;;;;;;;3.97;3.10;;;;;;;18.46;46.45;97503.13;10369512;28;20485;-29
2023/01/29 21:01:43;;;;;;;3.27;2.90;;;;;;;18.50;44.11;97497.28;10369494;28;20034;-28
2023/01/29 21:06:44;;;;;;;4.33;3.07;;;;;;;18.39;42.59;97498.81;10370572;28;20280;-27
2023/01/29 21:11:44;;;;;;;4.00;3.60;;;;;;;18.36;40.57;97488.63;10369295;28;20300;-28
2023/01/29 21:16:44;;;;;;;11.57;4.53;;;;;;;18.37;39.64;97490.34;10370054;28;20042;-28
2023/01/29 21:21:45;;;;;;;3.40;3.03;;;;;;;18.36;39.34;97471.75;10368908;28;20720;-29
2023/01/29 21:26:45;;;;;;;4.43;3.30;;;;;;;18.27;40.65;97485.94;10360854;28;20030;-27
2023/01/29 21:31:46;;;;;;;4.22;3.28;;;;;;;18.32;42.45;97490.28;10371471;28;20045;-29
2023/01/29 21:36:46;;;;;;;5.53;2.90;;;;;;;18.30;43.58;97491.09;10360793;28;20037;-27
2023/01/29 21:47:13;;;;;;;2.92;2.63;;;;;;;18.24;44.48;97480.84;10358842;28;20030;-37
2023/01/29 21:52:14;;;;;;;4.63;2.85;;;;;;;18.24;44.72;97481.69;10368146;28;20041;-27
2023/01/29 21:57:15;;;;;;;3.58;2.38;;;;;;;18.37;46.66;97468.38;10362499;28;20100;-28
2023/01/29 22:02:16;;;;;;;4.10;3.35;;;;;;;18.38;46.58;97466.69;10362413;28;20046;-27
2023/01/29 22:07:16;;;;;;;4.20;2.83;;;;;;;18.25;44.79;97447.06;10377501;28;20387;-29
2023/01/29 22:12:16;;;;;;;4.03;3.07;;;;;;;18.17;45.00;97439.34;10361889;28;20041;-28
2023/01/29 22:17:19;;;;;;;4.23;2.50;;;;;;;18.19;45.20;97446.97;10365707;28;20038;-28
2023/01/29 22:22:28;;;;;;;3.90;2.65;;;;;;;18.19;45.36;97434.31;10484612;28;20444;-27
2023/01/29 22:27:31;;;;;;;3.72;2.58;;;;;;;18.17;44.93;97430.91;10418198;28;20088;-27
2023/01/29 22:32:32;;;;;;;3.60;2.50;;;;;;;18.16;44.98;97421.63;10413598;28;20042;-27
2023/01/29 22:37:32;;;;;;;2.80;2.33;;;;;;;18.14;44.80;97413.13;10427434;28;20094;-27
2023/01/29 22:42:32;;;;;;;2.80;2.40;;;;;;;18.14;45.27;97398.78;10408760;28;20054;-28
2023/01/29 22:47:33;;;;;;;2.70;2.00;;;;;;;18.13;45.14;97412.28;10411471;28;20048;-28
2023/01/29 22:52:41;;;;;;;2.87;2.23;;;;;;;18.14;44.68;97410.59;10419398;28;20048;-27
2023/01/29 22:57:41;;;;;;;2.45;2.22;;;;;;;18.29;46.80;97413.31;10412351;28;20284;-28
2023/01/29 23:02:42;;;;;;;4.57;2.10;;;;;;;18.30;46.85;97417.56;10407633;28;20030;-27
2023/01/29 23:07:43;;;;;;;3.07;2.33;;;;;;;18.27;44.99;97410.78;10410884;28;20102;-27
2023/01/29 23:12:43;;;;;;;2.55;2.35;;;;;;;18.14;44.91;97419.03;10401567;28;20148;-27
2023/01/29 23:17:44;;;;;;;4.30;1.80;;;;;;;18.09;45.10;97409.69;10401505;28;20046;-26
2023/01/29 23:22:44;;;;;;;2.88;2.08;;;;;;;18.08;44.91;97413.06;10418134;28;20032;-27
2023/01/29 23:27:44;;;;;;;2.47;1.80;;;;;;;18.09;44.89;97419.81;10409055;28;20030;-26
2023/01/29 23:32:45;;;;;;;3.47;2.00;;;;;;;18.07;45.04;97417.25;10388050;28;20029;-27
2023/01/29 23:37:45;;;;;;;2.70;2.10;;;;;;;18.05;44.61;97416.41;10373716;28;20041;-27
2023/01/29 23:42:47;;;;;;;2.53;2.10;;;;;;;18.04;44.99;97411.31;10384543;28;20037;-27
2023/01/29 23:47:47;;;;;;;3.28;1.83;;;;;;;18.04;44.47;97396.09;10378366;28;20022;-26
2023/01/29 23:52:47;;;;;;;2.00;1.70;;;;;;;18.04;44.47;97389.38;10394941;28;20411;-27
2023/01/29 23:57:48;;;;;;;1.83;1.63;;;;;;;18.20;45.98;97377.72;10381070;28;20044;-27
